createdAt,value
2023-05-19T00:01:02.578Z,78.83
2023-05-19T00:03:32.083Z,78.99
2023-05-19T00:05:59.023Z,78.61
2023-05-19T00:08:31.786Z,78.50
2023-05-19T00:11:02.586Z,79.58
2023-05-19T00:13:30.228Z,79.51
2023-05-19T00:15:57.145Z,79.77
2023-05-19T00:18:26.558Z,79.97
2023-05-19T00:20:53.706Z,79.57
2023-05-19T00:23:22.696Z,80.11
2023-05-19T00:25:57.691Z,80.55
2023-05-19T00:28:26.458Z,80.88
2023-05-19T00:30:53.157Z,80.92
2023-05-19T00:33:19.744Z,81.31
2023-05-19T00:35:47.414Z,81.46
2023-05-19T00:38:16.346Z,81.35
2023-05-19T00:40:43.197Z,81.39
2023-05-19T00:43:09.893Z,82.11
2023-05-19T00:45:36.637Z,81.27
2023-05-19T00:48:03.385Z,81.98
2023-05-19T00:50:31.006Z,82.83
2023-05-19T00:53:03.081Z,82.80
2023-05-19T00:55:31.816Z,82.52
2023-05-19T00:57:58.784Z,82.42
2023-05-19T01:00:28.371Z,83.16
2023-05-19T01:02:57.178Z,83.48
2023-05-19T01:05:23.938Z,83.93
2023-05-19T01:07:53.624Z,84.71
2023-05-19T01:10:22.405Z,84.11
2023-05-19T01:12:51.588Z,84.32
2023-05-19T01:15:18.465Z,83.89
2023-05-19T01:17:54.822Z,83.85
2023-05-19T01:20:31.902Z,83.89
2023-05-19T01:23:07.402Z,84.55
2023-05-19T01:25:51.607Z,84.79
2023-05-19T01:29:01.810Z,83.98
2023-05-19T01:31:29.150Z,85.09
2023-05-19T01:33:57.570Z,85.41
2023-05-19T01:36:28.164Z,85.51
2023-05-19T01:39:00.431Z,86.12
2023-05-19T01:41:28.759Z,85.61
2023-05-19T01:43:57.601Z,86.15
2023-05-19T01:46:25.133Z,86.23
2023-05-19T01:48:56.500Z,86.72
2023-05-19T01:51:23.198Z,86.96
2023-05-19T01:53:52.442Z,87.21
2023-05-19T01:56:36.189Z,86.56
2023-05-19T01:59:28.959Z,86.78
2023-05-19T02:02:00.327Z,87.09
2023-05-19T02:04:53.114Z,86.85
2023-05-19T02:07:31.002Z,87.47
2023-05-19T02:10:11.409Z,87.61
2023-05-19T02:12:41.758Z,87.88
2023-05-19T02:15:16.865Z,88.13
2023-05-19T02:17:52.181Z,88.98
2023-05-19T02:20:20.168Z,88.18
2023-05-19T02:22:47.031Z,88.43
2023-05-19T02:25:17.431Z,88.77
2023-05-19T02:27:44.203Z,89.12
2023-05-19T02:30:13.995Z,89.29
2023-05-19T02:32:42.007Z,89.34
2023-05-19T02:35:10.661Z,89.48
2023-05-19T02:37:38.792Z,89.80
2023-05-19T02:40:08.906Z,90.30
2023-05-19T02:42:43.268Z,90.26
2023-05-19T02:45:10.201Z,90.63
2023-05-19T02:47:38.608Z,90.73
2023-05-19T02:50:06.598Z,90.40
2023-05-19T02:52:33.280Z,91.22
2023-05-19T02:54:59.967Z,91.20
2023-05-19T02:57:27.078Z,91.52
2023-05-19T02:59:54.205Z,91.12
2023-05-19T03:02:22.501Z,91.89
2023-05-19T03:04:52.765Z,92.14
2023-05-19T03:07:25.527Z,92.53
2023-05-19T03:09:52.743Z,92.55
2023-05-19T03:12:20.411Z,92.22
2023-05-19T03:14:49.610Z,92.13
2023-05-19T03:17:17.351Z,92.48
2023-05-19T03:19:44.737Z,93.18
2023-05-19T03:22:11.496Z,92.24
2023-05-19T03:24:38.210Z,92.51
2023-05-19T03:27:05.884Z,93.18
2023-05-19T03:29:33.828Z,93.41
2023-05-19T03:32:00.762Z,93.77
2023-05-19T03:34:27.649Z,93.29
2023-05-19T03:36:54.295Z,93.70
2023-05-19T03:39:29.482Z,93.95
2023-05-19T03:41:56.697Z,93.64
2023-05-19T03:44:25.903Z,94.07
2023-05-19T03:46:52.756Z,93.98
2023-05-19T03:49:20.139Z,94.58
2023-05-19T03:51:47.236Z,94.38
2023-05-19T03:54:13.946Z,94.10
2023-05-19T03:56:42.085Z,94.59
2023-05-19T03:59:11.357Z,93.80
2023-05-19T04:01:38.198Z,93.62
2023-05-19T04:04:05.221Z,93.40
2023-05-19T04:06:31.904Z,92.99
2023-05-19T04:08:58.537Z,93.29
2023-05-19T04:11:25.305Z,93.15
2023-05-19T04:13:52.056Z,93.35
2023-05-19T04:16:18.791Z,93.28
2023-05-19T04:18:46.613Z,93.05
2023-05-19T04:21:15.565Z,93.26
2023-05-19T04:23:42.157Z,93.35
2023-05-19T04:26:09.775Z,92.90
2023-05-19T04:28:39.110Z,92.66
2023-05-19T04:31:13.637Z,92.06
2023-05-19T04:33:43.294Z,90.91
2023-05-19T04:36:11.707Z,90.49
2023-05-19T04:38:40.484Z,90.00
2023-05-19T04:41:10.707Z,87.01
2023-05-19T04:43:42.111Z,86.51
2023-05-19T04:46:13.704Z,85.19
2023-05-19T04:48:42.910Z,83.40
2023-05-19T04:51:12.221Z,78.80
2023-05-19T04:53:40.515Z,72.84
2023-05-19T04:56:07.770Z,70.63
2023-05-19T04:58:35.340Z,68.16
2023-05-19T05:01:01.967Z,65.89
2023-05-19T05:03:28.711Z,64.05
2023-05-19T05:05:59.462Z,61.78
2023-05-19T05:08:26.161Z,63.31
2023-05-19T05:10:54.195Z,64.42
2023-05-19T05:13:26.107Z,63.38
2023-05-19T05:15:52.960Z,61.07
2023-05-19T05:18:22.935Z,60.52
2023-05-19T05:20:51.433Z,61.02
2023-05-19T05:23:20.152Z,61.22
2023-05-19T05:25:50.521Z,60.90
2023-05-19T05:28:17.565Z,59.01
2023-05-19T05:30:45.341Z,57.96
2023-05-19T05:33:13.932Z,58.27
2023-05-19T05:35:42.058Z,60.96
2023-05-19T05:38:13.951Z,64.50
2023-05-19T05:40:41.048Z,66.54
2023-05-19T05:43:08.422Z,62.80
2023-05-19T05:45:35.140Z,59.80
2023-05-19T05:48:02.194Z,58.91
2023-05-19T05:50:29.602Z,57.46
2023-05-19T05:52:57.989Z,57.58
2023-05-19T05:55:25.130Z,54.89
2023-05-19T05:57:51.844Z,54.93
2023-05-19T06:00:20.808Z,55.22
2023-05-19T06:02:51.465Z,57.05
2023-05-19T06:05:20.892Z,59.86
2023-05-19T06:07:47.721Z,57.89
2023-05-19T06:10:14.685Z,54.62
2023-05-19T06:12:43.297Z,54.78
2023-05-19T06:15:14.132Z,56.08
2023-05-19T06:17:40.727Z,55.97
2023-05-19T06:20:11.177Z,54.34
2023-05-19T06:22:37.810Z,56.39
2023-05-19T06:25:06.092Z,58.35
2023-05-19T06:27:34.928Z,57.26
2023-05-19T06:30:06.543Z,56.40
2023-05-19T06:32:33.219Z,55.82
2023-05-19T06:35:00.256Z,53.70
2023-05-19T06:37:27.559Z,53.59
2023-05-19T06:39:54.088Z,53.71
2023-05-19T06:42:25.363Z,54.10
2023-05-19T06:44:53.287Z,53.90
2023-05-19T06:47:20.057Z,53.82
2023-05-19T06:49:55.507Z,54.17
2023-05-19T06:52:23.072Z,54.06
2023-05-19T06:54:50.733Z,54.53
2023-05-19T06:57:17.337Z,54.69
2023-05-19T06:59:45.691Z,55.65
2023-05-19T07:02:13.071Z,55.12
2023-05-19T07:04:40.104Z,55.04
2023-05-19T07:07:07.388Z,55.98
2023-05-19T07:09:34.100Z,58.07
2023-05-19T07:12:01.635Z,58.70
2023-05-19T07:14:28.235Z,60.14
2023-05-19T07:16:56.971Z,59.21
2023-05-19T07:19:24.242Z,60.69
2023-05-19T07:21:53.513Z,61.16
2023-05-19T07:24:28.092Z,60.62
2023-05-19T07:26:54.867Z,61.10
2023-05-19T07:29:21.751Z,61.24
2023-05-19T07:31:50.749Z,60.31
2023-05-19T07:34:17.633Z,59.49
2023-05-19T07:36:46.525Z,59.38
2023-05-19T07:39:13.229Z,60.36
2023-05-19T07:41:43.868Z,59.39
2023-05-19T07:44:10.985Z,58.26
2023-05-19T07:46:38.670Z,57.14
2023-05-19T07:49:05.364Z,56.88
2023-05-19T07:51:32.199Z,58.04
2023-05-19T07:53:58.760Z,56.95
2023-05-19T07:56:25.339Z,56.19
2023-05-19T07:58:51.923Z,55.70
2023-05-19T08:01:18.794Z,55.56
2023-05-19T08:03:46.526Z,54.66
2023-05-19T08:06:14.796Z,55.06
2023-05-19T08:08:42.827Z,54.79
2023-05-19T08:11:10.868Z,54.43
2023-05-19T08:13:38.257Z,52.99
2023-05-19T08:16:05.408Z,52.56
2023-05-19T08:18:33.195Z,53.08
2023-05-19T08:21:01.483Z,51.87
2023-05-19T08:23:30.743Z,51.29
2023-05-19T08:25:57.612Z,50.47
2023-05-19T08:28:25.159Z,50.28
2023-05-19T08:30:55.153Z,49.88
2023-05-19T08:33:23.191Z,49.18
2023-05-19T08:35:51.313Z,49.44
2023-05-19T08:38:18.022Z,49.52
2023-05-19T08:40:50.813Z,48.38
2023-05-19T08:43:17.542Z,46.78
2023-05-19T08:45:49.731Z,47.62
2023-05-19T08:48:20.726Z,46.68
2023-05-19T08:50:57.466Z,45.75
2023-05-19T08:53:34.106Z,44.98
2023-05-19T08:56:15.497Z,45.88
2023-05-19T08:58:53.060Z,45.11
2023-05-19T09:01:23.472Z,43.57
2023-05-19T09:04:17.436Z,43.86
2023-05-19T09:06:46.236Z,44.16
2023-05-19T09:09:15.984Z,45.62
2023-05-19T09:11:47.517Z,44.83
2023-05-19T09:14:16.249Z,46.25
2023-05-19T09:16:51.870Z,43.12
2023-05-19T09:19:22.316Z,43.81
2023-05-19T09:22:12.381Z,43.81
2023-05-19T09:24:40.530Z,44.19
2023-05-19T09:27:07.777Z,43.13
2023-05-19T09:29:34.442Z,43.23
2023-05-19T09:32:06.576Z,41.42
2023-05-19T09:34:35.789Z,41.68
2023-05-19T09:37:03.123Z,42.55
2023-05-19T09:39:30.839Z,43.32
2023-05-19T09:42:00.278Z,42.88
2023-05-19T09:44:29.626Z,42.84
2023-05-19T09:46:58.891Z,42.94
2023-05-19T09:49:33.719Z,41.61
2023-05-19T09:52:04.238Z,41.80
2023-05-19T09:54:33.009Z,41.33
2023-05-19T09:57:05.217Z,42.34
2023-05-19T09:59:34.078Z,43.20
2023-05-19T10:02:03.237Z,44.37
2023-05-19T10:04:30.806Z,43.95
2023-05-19T10:07:06.584Z,43.20
2023-05-19T10:09:36.137Z,42.27
2023-05-19T10:12:07.141Z,42.89
2023-05-19T10:14:33.752Z,43.40
2023-05-19T10:17:00.752Z,43.17
2023-05-19T10:19:29.109Z,44.10
2023-05-19T10:21:56.519Z,43.61
2023-05-19T10:24:23.495Z,43.48
2023-05-19T10:26:57.528Z,42.95
2023-05-19T10:29:33.322Z,42.38
2023-05-19T10:32:08.603Z,42.85
2023-05-19T10:34:54.023Z,42.59
2023-05-19T10:37:38.852Z,41.92
2023-05-19T10:40:37.811Z,41.63
2023-05-19T10:43:32.901Z,42.35
2023-05-19T10:46:00.801Z,41.53
2023-05-19T10:48:41.372Z,41.99
2023-05-19T10:51:12.428Z,42.58
2023-05-19T10:53:51.962Z,41.78
2023-05-19T10:56:37.207Z,41.82
2023-05-19T10:59:03.863Z,40.57
2023-05-19T11:01:35.770Z,40.95
2023-05-19T11:04:10.683Z,41.51
2023-05-19T11:06:38.147Z,41.83
2023-05-19T11:09:16.655Z,41.29
2023-05-19T11:11:48.480Z,39.72
2023-05-19T11:14:23.611Z,38.55
2023-05-19T11:16:52.831Z,38.76
2023-05-19T11:19:30.018Z,37.57
2023-05-19T11:21:58.083Z,37.87
2023-05-19T11:24:40.967Z,39.00
2023-05-19T11:27:24.106Z,38.67
2023-05-19T11:29:54.160Z,36.91
2023-05-19T11:32:24.863Z,37.20
2023-05-19T11:34:52.048Z,39.21
2023-05-19T11:37:21.282Z,38.53
2023-05-19T11:39:48.345Z,38.70
2023-05-19T11:42:14.913Z,38.80
2023-05-19T11:44:41.583Z,38.29
2023-05-19T11:47:08.932Z,37.95
2023-05-19T11:49:37.182Z,38.55
2023-05-19T11:52:07.550Z,38.67
2023-05-19T11:54:37.191Z,35.62
2023-05-19T11:57:04.191Z,37.28
2023-05-19T11:59:36.280Z,37.37
2023-05-19T12:02:17.009Z,35.82
2023-05-19T12:04:43.716Z,36.58
2023-05-19T12:07:17.795Z,37.63
2023-05-19T12:09:47.955Z,37.24
2023-05-19T12:12:23.247Z,37.39
2023-05-19T12:14:53.619Z,36.57
2023-05-19T12:17:26.918Z,35.94
2023-05-19T12:19:54.291Z,35.40
2023-05-19T12:22:21.393Z,34.36
2023-05-19T12:24:51.081Z,35.07
2023-05-19T12:27:20.445Z,34.71
2023-05-19T12:29:52.837Z,34.68
2023-05-19T12:32:26.206Z,34.91
2023-05-19T12:34:56.324Z,36.27
2023-05-19T12:37:27.631Z,35.88
2023-05-19T12:39:56.771Z,35.21
2023-05-19T12:42:37.436Z,34.46
2023-05-19T12:45:07.429Z,35.46
2023-05-19T12:47:35.320Z,38.73
2023-05-19T12:50:05.376Z,39.47
2023-05-19T12:52:35.451Z,39.40
2023-05-19T12:55:06.012Z,38.20
2023-05-19T12:57:37.261Z,35.29
2023-05-19T13:00:10.819Z,34.49
2023-05-19T13:03:01.751Z,37.06
2023-05-19T13:05:32.803Z,36.94
2023-05-19T13:08:10.554Z,37.58
2023-05-19T13:10:39.090Z,36.79
2023-05-19T13:13:08.049Z,37.55
2023-05-19T13:15:38.057Z,36.24
2023-05-19T13:18:10.083Z,37.31
2023-05-19T13:20:38.678Z,37.53
2023-05-19T13:23:05.982Z,37.75
2023-05-19T13:25:35.840Z,37.80
2023-05-19T13:28:07.707Z,38.45
2023-05-19T13:30:39.608Z,38.99
2023-05-19T13:33:08.371Z,37.85
2023-05-19T13:35:37.985Z,37.88
2023-05-19T13:38:11.052Z,38.06
2023-05-19T13:40:38.317Z,37.47
2023-05-19T13:43:05.270Z,35.60
2023-05-19T13:45:32.292Z,35.44
2023-05-19T13:47:58.948Z,35.66
2023-05-19T13:50:25.948Z,35.11
2023-05-19T13:52:52.900Z,37.10
2023-05-19T13:55:19.730Z,38.02
2023-05-19T13:57:46.379Z,37.51
2023-05-19T14:00:17.331Z,37.56
2023-05-19T14:02:44.684Z,38.12
2023-05-19T14:05:11.553Z,38.61
2023-05-19T14:07:38.760Z,38.75
2023-05-19T14:10:08.988Z,39.48
2023-05-19T14:12:55.033Z,39.41
2023-05-19T14:15:25.286Z,37.40
2023-05-19T14:17:53.528Z,36.47
2023-05-19T14:20:22.354Z,36.73
2023-05-19T14:22:55.860Z,36.32
2023-05-19T14:25:22.843Z,36.67
2023-05-19T14:27:49.712Z,36.70
2023-05-19T14:30:16.560Z,36.82
2023-05-19T14:32:43.130Z,36.75
2023-05-19T14:35:10.047Z,37.02
2023-05-19T14:37:41.992Z,36.70
2023-05-19T14:40:09.542Z,36.85
2023-05-19T14:42:36.411Z,36.57
2023-05-19T14:45:03.793Z,36.31
2023-05-19T14:47:30.586Z,36.30
2023-05-19T14:49:58.336Z,36.91
2023-05-19T14:52:27.036Z,36.51
2023-05-19T14:54:53.597Z,36.17
2023-05-19T14:57:24.566Z,35.87
2023-05-19T14:59:51.435Z,36.14
2023-05-19T15:02:20.737Z,36.09
2023-05-19T15:04:51.428Z,36.18
2023-05-19T15:07:18.652Z,37.70
2023-05-19T15:09:46.675Z,37.49
2023-05-19T15:12:15.939Z,38.52
2023-05-19T15:14:44.356Z,36.53
2023-05-19T15:17:11.639Z,36.56
2023-05-19T15:19:43.029Z,34.78
2023-05-19T15:22:09.762Z,36.12
2023-05-19T15:24:37.223Z,36.14
2023-05-19T15:27:04.155Z,35.93
2023-05-19T15:29:30.800Z,35.92
2023-05-19T15:31:58.448Z,35.73
2023-05-19T15:34:26.612Z,36.09
2023-05-19T15:36:53.626Z,36.45
2023-05-19T15:39:25.462Z,36.28
2023-05-19T15:41:54.927Z,36.34
2023-05-19T15:44:23.583Z,36.28
2023-05-19T15:46:53.139Z,35.76
2023-05-19T15:49:23.132Z,37.08
2023-05-19T15:51:51.743Z,36.32
2023-05-19T15:54:20.248Z,36.11
2023-05-19T15:56:47.042Z,36.05
2023-05-19T15:59:18.628Z,36.87
2023-05-19T16:01:56.008Z,36.68
2023-05-19T16:04:26.233Z,36.49
2023-05-19T16:06:58.011Z,37.24
2023-05-19T16:09:25.664Z,37.22
2023-05-19T16:11:52.459Z,37.22
2023-05-19T16:14:22.679Z,37.32
2023-05-19T16:16:51.415Z,37.82
2023-05-19T16:19:23.654Z,37.46
2023-05-19T16:21:51.471Z,37.58
2023-05-19T16:24:20.219Z,37.52
2023-05-19T16:26:50.868Z,36.97
2023-05-19T16:29:21.112Z,37.50
2023-05-19T16:31:51.526Z,37.45
2023-05-19T16:34:24.077Z,37.41
2023-05-19T16:36:52.050Z,38.00
2023-05-19T16:39:22.906Z,37.23
2023-05-19T16:41:53.478Z,38.26
2023-05-19T16:44:20.160Z,38.08
2023-05-19T16:46:55.390Z,38.96
2023-05-19T16:49:23.597Z,37.94
2023-05-19T16:51:54.946Z,38.42
2023-05-19T16:54:23.496Z,38.11
2023-05-19T16:56:51.352Z,38.55
2023-05-19T16:59:20.696Z,38.42
2023-05-19T17:01:48.540Z,37.67
2023-05-19T17:04:15.705Z,37.91
2023-05-19T17:06:42.994Z,37.59
2023-05-19T17:09:09.558Z,37.98
2023-05-19T17:11:36.664Z,38.31
2023-05-19T17:14:07.907Z,38.64
2023-05-19T17:16:35.802Z,39.02
2023-05-19T17:19:03.835Z,38.91
2023-05-19T17:21:31.940Z,38.81
2023-05-19T17:23:59.111Z,38.79
2023-05-19T17:26:29.020Z,39.15
2023-05-19T17:28:58.542Z,38.23
2023-05-19T17:31:25.486Z,38.49
2023-05-19T17:33:53.515Z,38.81
2023-05-19T17:36:21.103Z,38.91
2023-05-19T17:38:51.298Z,38.81
2023-05-19T17:41:20.500Z,39.07
2023-05-19T17:43:47.122Z,39.44
2023-05-19T17:46:16.021Z,39.97
2023-05-19T17:48:44.007Z,39.71
2023-05-19T17:51:11.905Z,39.51
2023-05-19T17:53:39.920Z,39.85
2023-05-19T17:56:11.590Z,40.16
2023-05-19T17:58:38.766Z,39.68
2023-05-19T18:01:07.534Z,40.11
2023-05-19T18:03:35.577Z,39.56
2023-05-19T18:06:03.383Z,39.94
2023-05-19T18:08:31.546Z,40.88
2023-05-19T18:11:00.848Z,40.98
2023-05-19T18:13:31.641Z,41.24
2023-05-19T18:16:00.643Z,40.07
2023-05-19T18:18:27.350Z,41.19
2023-05-19T18:20:55.023Z,41.59
2023-05-19T18:23:22.517Z,41.37
2023-05-19T18:25:55.538Z,42.16
2023-05-19T18:28:23.856Z,42.02
2023-05-19T18:31:03.808Z,41.61
2023-05-19T18:33:31.878Z,41.26
2023-05-19T18:35:58.961Z,41.87
2023-05-19T18:38:25.959Z,41.92
2023-05-19T18:40:52.884Z,42.41
2023-05-19T18:43:21.527Z,42.19
2023-05-19T18:45:49.400Z,42.22
2023-05-19T18:48:20.982Z,42.91
2023-05-19T18:50:48.027Z,43.05
2023-05-19T18:53:15.172Z,42.56
2023-05-19T18:55:42.330Z,43.29
2023-05-19T18:58:09.071Z,43.56
2023-05-19T19:00:36.423Z,43.06
2023-05-19T19:03:06.115Z,43.50
2023-05-19T19:05:34.655Z,44.27
2023-05-19T19:08:01.442Z,43.98
2023-05-19T19:10:30.641Z,44.12
2023-05-19T19:12:57.955Z,44.36
2023-05-19T19:15:25.778Z,44.79
2023-05-19T19:18:04.573Z,44.63
2023-05-19T19:20:37.786Z,44.42
2023-05-19T19:23:12.604Z,44.92
2023-05-19T19:25:39.681Z,45.05
2023-05-19T19:28:07.008Z,45.15
2023-05-19T19:30:58.854Z,45.22
2023-05-19T19:33:27.167Z,45.53
2023-05-19T19:35:55.930Z,45.72
2023-05-19T19:38:23.175Z,45.64
2023-05-19T19:40:53.208Z,46.30
2023-05-19T19:43:23.207Z,45.89
2023-05-19T19:46:04.396Z,46.22
2023-05-19T19:48:32.170Z,47.08
2023-05-19T19:50:58.904Z,47.13
2023-05-19T19:53:28.525Z,47.29
2023-05-19T19:56:03.928Z,46.94
2023-05-19T19:58:34.603Z,47.03
2023-05-19T20:01:05.719Z,47.48
2023-05-19T20:03:33.672Z,47.26
2023-05-19T20:06:01.476Z,47.60
2023-05-19T20:08:30.499Z,47.52
2023-05-19T20:10:57.729Z,47.83
2023-05-19T20:13:25.270Z,47.74
2023-05-19T20:15:52.564Z,48.05
2023-05-19T20:18:22.918Z,48.00
2023-05-19T20:20:51.841Z,48.61
2023-05-19T20:23:18.597Z,48.48
2023-05-19T20:26:02.300Z,48.43
2023-05-19T20:28:39.528Z,50.07
2023-05-19T20:31:08.060Z,52.35
2023-05-19T20:33:35.400Z,54.08
2023-05-19T20:36:02.327Z,55.03
2023-05-19T20:38:31.512Z,56.80
2023-05-19T20:40:59.204Z,58.18
2023-05-19T20:43:26.964Z,59.13
2023-05-19T20:45:57.101Z,60.10
2023-05-19T20:48:24.519Z,60.51
2023-05-19T20:50:55.724Z,61.84
2023-05-19T20:53:23.305Z,62.89
2023-05-19T20:55:51.783Z,63.47
2023-05-19T20:58:18.864Z,63.92
2023-05-19T21:00:47.463Z,64.22
2023-05-19T21:03:15.890Z,64.57
2023-05-19T21:05:46.469Z,65.26
2023-05-19T21:08:13.425Z,65.73
2023-05-19T21:10:41.015Z,65.82
2023-05-19T21:13:11.449Z,65.35
2023-05-19T21:15:38.269Z,65.63
2023-05-19T21:18:05.943Z,66.07
2023-05-19T21:20:37.296Z,65.79
2023-05-19T21:23:05.695Z,66.27
2023-05-19T21:25:37.298Z,66.53
2023-05-19T21:28:04.555Z,65.89
2023-05-19T21:30:32.317Z,66.43
2023-05-19T21:32:59.876Z,66.86
2023-05-19T21:35:26.948Z,67.01
2023-05-19T21:37:53.614Z,67.22
2023-05-19T21:40:24.951Z,67.23
2023-05-19T21:42:52.112Z,67.31
2023-05-19T21:45:19.370Z,67.21
2023-05-19T21:47:46.409Z,67.08
2023-05-19T21:50:17.381Z,66.70
2023-05-19T21:52:46.032Z,66.64
2023-05-19T21:55:12.866Z,66.62
2023-05-19T21:57:39.755Z,66.79
2023-05-19T22:00:08.860Z,66.47
2023-05-19T22:02:41.561Z,66.16
2023-05-19T22:05:14.924Z,65.81
2023-05-19T22:07:46.818Z,65.45
2023-05-19T22:10:14.983Z,65.58
2023-05-19T22:12:41.598Z,65.33
2023-05-19T22:15:09.188Z,65.50
2023-05-19T22:17:37.139Z,65.46
2023-05-19T22:20:05.532Z,65.33
2023-05-19T22:22:33.116Z,65.64
2023-05-19T22:25:00.151Z,65.46
2023-05-19T22:27:27.902Z,65.60
2023-05-19T22:29:58.332Z,64.94
2023-05-19T22:32:25.348Z,65.13
2023-05-19T22:34:53.226Z,65.12
2023-05-19T22:37:22.901Z,65.47
2023-05-19T22:39:54.107Z,65.37
2023-05-19T22:42:24.308Z,65.54
2023-05-19T22:44:54.389Z,65.75
2023-05-19T22:47:21.001Z,65.29
2023-05-19T22:50:20.670Z,65.29
2023-05-19T22:53:11.800Z,65.63
2023-05-19T22:55:39.501Z,65.84
2023-05-19T22:58:09.224Z,66.76
2023-05-19T23:00:35.913Z,66.36
2023-05-19T23:03:02.704Z,66.82
2023-05-19T23:05:33.029Z,67.39
2023-05-19T23:08:00.695Z,67.63
2023-05-19T23:10:30.294Z,67.69
2023-05-19T23:12:58.040Z,68.05
2023-05-19T23:15:25.770Z,67.86
2023-05-19T23:17:52.731Z,68.01
2023-05-19T23:20:20.000Z,68.59
2023-05-19T23:22:47.091Z,68.38
2023-05-19T23:25:15.075Z,68.41
2023-05-19T23:27:41.651Z,69.34
2023-05-19T23:30:08.860Z,68.96
2023-05-19T23:32:35.492Z,69.07
2023-05-19T23:35:19.738Z,69.08
2023-05-19T23:41:19.865Z,69.19
2023-05-19T23:43:46.900Z,69.48
2023-05-19T23:46:17.092Z,69.72
2023-05-19T23:48:44.046Z,70.21
2023-05-19T23:51:13.912Z,69.97
2023-05-19T23:53:40.522Z,69.32
2023-05-19T23:56:07.430Z,70.04
2023-05-19T23:58:33.994Z,70.57
